Fogo, Canada
Current Conditions -  °F | °C
As of 3:00 AM on Wednesday 28 Jan 2015 (Local Time) from CYQX Reporting Station
Light Snow Light Snow  
Wind Chill: 11°   Ceiling: 1200
Heat Index: 25°   Visibility: 1.2mi
Dew Point: 23°   Wind: 17mph
Humidity: 93%   Direction: 60°ENE
Pressure: 29.79"   Gusts: NA
Location:  49.7°N, 54.28°W
Report Text: CYQX 280600Z 06015KT 1 1/4SM -PLSN DRSN SCT004 OVC012 M04/M05 A2979 RMK SN3SF1SC4 /S01/ PRESFR SLP098
Loading
Personal Weather Stations






























Interactive Weather Map New forecast layout! Learn more

10-Day Weather Forecast

Advertisements
Track Severe Weather on mobile